createdAt,value
2022-09-26T00:01:46.367Z,1.88
2022-09-26T00:04:48.292Z,1.90
2022-09-26T00:07:50.105Z,2.47
2022-09-26T00:10:59.176Z,1.97
2022-09-26T00:14:03.268Z,1.80
2022-09-26T00:17:05.156Z,2.63
2022-09-26T00:20:07.365Z,2.10
2022-09-26T00:23:12.123Z,1.90
2022-09-26T00:26:14.685Z,1.80
2022-09-26T00:32:18.717Z,1.90
2022-09-26T00:35:21.219Z,1.83
2022-09-26T00:38:23.223Z,1.70
2022-09-26T00:41:25.079Z,1.60
2022-09-26T00:44:50.509Z,1.80
2022-09-26T00:47:58.093Z,1.77
2022-09-26T00:50:59.930Z,1.80
2022-09-26T00:54:01.784Z,1.70
2022-09-26T00:57:12.557Z,1.80
2022-09-26T01:00:15.803Z,2.20
2022-09-26T01:03:17.721Z,1.88
2022-09-26T01:06:19.585Z,1.98
2022-09-26T01:09:21.448Z,1.90
2022-09-26T01:12:23.385Z,2.00
2022-09-26T01:15:25.395Z,1.80
2022-09-26T01:18:27.608Z,2.05
2022-09-26T01:21:48.002Z,2.10
2022-09-26T01:25:07.546Z,2.00
2022-09-26T01:28:12.398Z,1.98
2022-09-26T01:31:34.739Z,2.08
2022-09-26T01:34:51.627Z,2.20
2022-09-26T01:38:13.233Z,2.25
2022-09-26T01:41:34.067Z,2.13
2022-09-26T01:44:41.053Z,1.70
2022-09-26T01:47:55.657Z,1.85
2022-09-26T01:51:05.303Z,2.10
2022-09-26T01:54:11.392Z,1.90
2022-09-26T01:57:17.680Z,1.98
2022-09-26T02:00:19.788Z,2.35
2022-09-26T02:03:23.063Z,2.15
2022-09-26T02:06:33.892Z,2.20
2022-09-26T02:09:45.948Z,1.80
2022-09-26T02:12:55.055Z,1.90
2022-09-26T02:16:00.531Z,1.80
2022-09-26T02:19:20.258Z,2.30
2022-09-26T02:22:22.784Z,2.17
2022-09-26T02:28:26.608Z,2.08
2022-09-26T02:31:31.870Z,2.10
2022-09-26T02:34:33.705Z,1.90
2022-09-26T02:37:37.161Z,1.88
2022-09-26T02:40:56.576Z,2.50
2022-09-26T02:44:12.735Z,2.50
2022-09-26T02:47:37.363Z,2.17
2022-09-26T02:51:17.797Z,2.28
2022-09-26T02:54:46.581Z,2.13
2022-09-26T02:57:55.723Z,2.10
2022-09-26T03:01:25.942Z,2.45
2022-09-26T03:05:03.943Z,2.28
2022-09-26T03:08:12.193Z,2.13
2022-09-26T03:11:17.186Z,2.20
2022-09-26T03:14:21.193Z,2.00
2022-09-26T03:17:23.491Z,2.00
2022-09-26T03:23:30.117Z,2.00
2022-09-26T03:26:37.020Z,1.80
2022-09-26T03:29:39.142Z,2.00
2022-09-26T03:32:43.913Z,2.00
2022-09-26T03:35:46.010Z,1.98
2022-09-26T03:38:47.950Z,2.00
2022-09-26T03:42:09.059Z,2.30
2022-09-26T03:45:11.391Z,1.77
2022-09-26T03:48:34.618Z,1.90
2022-09-26T03:51:37.290Z,2.20
2022-09-26T03:54:39.309Z,1.90
2022-09-26T03:57:41.172Z,2.35
2022-09-26T04:00:53.814Z,1.90
2022-09-26T04:03:56.595Z,2.15
2022-09-26T04:06:59.106Z,2.30
2022-09-26T04:10:02.028Z,2.00
2022-09-26T04:13:03.930Z,2.03
2022-09-26T04:16:06.514Z,2.30
2022-09-26T04:19:08.783Z,2.20
2022-09-26T04:22:10.882Z,2.13
2022-09-26T04:25:13.213Z,2.20
2022-09-26T04:28:15.193Z,2.38
2022-09-26T04:31:17.140Z,1.60
2022-09-26T04:34:27.467Z,1.80
2022-09-26T04:37:30.279Z,1.50
2022-09-26T04:40:32.340Z,1.67
2022-09-26T04:43:39.332Z,1.50
2022-09-26T04:46:44.614Z,1.30
2022-09-26T04:52:48.886Z,1.20
2022-09-26T04:55:54.413Z,1.10
2022-09-26T04:58:56.945Z,1.48
2022-09-26T05:02:08.343Z,1.00
2022-09-26T05:05:16.144Z,1.25
2022-09-26T05:08:18.139Z,1.40
2022-09-26T05:11:21.555Z,1.60
2022-09-26T05:14:23.537Z,1.50
2022-09-26T05:17:25.505Z,1.90
2022-09-26T05:20:31.582Z,1.60
2022-09-26T05:23:55.744Z,1.77
2022-09-26T05:26:57.592Z,2.20
2022-09-26T05:29:59.570Z,2.25
2022-09-26T05:33:02.355Z,1.90
2022-09-26T05:36:05.013Z,2.38
2022-09-26T05:39:26.898Z,1.90
2022-09-26T05:42:28.884Z,1.97
2022-09-26T05:45:31.363Z,2.20
2022-09-26T05:48:35.703Z,2.17
2022-09-26T05:51:41.343Z,1.92
2022-09-26T05:54:45.259Z,2.30
2022-09-26T05:58:07.664Z,2.13
2022-09-26T06:01:42.128Z,2.50
2022-09-26T06:04:57.865Z,2.50
2022-09-26T06:08:18.427Z,2.78
2022-09-26T06:11:28.010Z,2.40
2022-09-26T06:14:29.854Z,2.47
2022-09-26T06:17:31.768Z,2.25
2022-09-26T06:20:33.898Z,2.00
2022-09-26T06:23:35.901Z,2.10
2022-09-26T06:26:39.500Z,2.40
2022-09-26T06:29:41.427Z,1.60
2022-09-26T06:32:44.282Z,1.80
2022-09-26T06:36:06.420Z,1.60
2022-09-26T06:39:10.609Z,1.70
2022-09-26T06:42:12.478Z,1.65
2022-09-26T06:45:26.680Z,1.63
2022-09-26T06:48:44.922Z,1.60
2022-09-26T06:52:02.689Z,1.50
2022-09-26T06:55:06.857Z,1.67
2022-09-26T06:58:08.851Z,1.63
2022-09-26T07:01:24.139Z,1.50
2022-09-26T07:04:49.621Z,1.40
2022-09-26T07:07:57.496Z,1.30
2022-09-26T07:11:27.932Z,1.48
2022-09-26T07:14:23.800Z,1.30
2022-09-26T07:17:30.541Z,1.10
2022-09-26T07:20:56.653Z,1.40
2022-09-26T07:24:21.775Z,1.25
2022-09-26T07:27:23.632Z,1.30
2022-09-26T07:30:25.814Z,1.10
2022-09-26T07:33:33.896Z,1.20
2022-09-26T07:36:40.757Z,1.33
2022-09-26T07:39:43.867Z,1.50
2022-09-26T07:43:04.022Z,1.58
2022-09-26T07:46:27.142Z,1.52
2022-09-26T07:49:49.822Z,1.45
2022-09-26T07:53:09.782Z,1.80
2022-09-26T07:56:34.560Z,6.93
2022-09-26T08:00:13.419Z,1.80
2022-09-26T08:03:32.502Z,1.50
2022-09-26T08:06:37.298Z,2.35
2022-09-26T08:09:39.115Z,1.58
2022-09-26T08:13:06.794Z,1.77
2022-09-26T08:16:31.586Z,2.40
2022-09-26T08:19:37.324Z,2.90
2022-09-26T08:22:39.258Z,3.38
2022-09-26T08:25:42.019Z,2.42
2022-09-26T08:29:09.548Z,2.20
2022-09-26T08:32:11.390Z,1.92
2022-09-26T08:35:15.010Z,2.00
2022-09-26T08:38:50.042Z,1.95
2022-09-26T08:42:29.624Z,2.63
2022-09-26T08:46:12.161Z,2.28
2022-09-26T08:49:25.843Z,2.40
2022-09-26T08:52:53.960Z,2.20
2022-09-26T08:55:57.145Z,2.75
2022-09-26T08:58:59.610Z,2.25
2022-09-26T09:02:11.228Z,2.47
2022-09-26T09:05:42.998Z,2.70
2022-09-26T09:08:46.805Z,2.97
2022-09-26T09:12:14.527Z,3.00
2022-09-26T09:15:26.919Z,3.20
2022-09-26T09:19:05.819Z,3.10
2022-09-26T09:22:45.020Z,2.65
2022-09-26T09:30:16.835Z,3.45
2022-09-26T09:34:00.469Z,3.25
2022-09-26T09:37:16.292Z,3.83
2022-09-26T09:41:05.488Z,4.03
2022-09-26T09:44:19.740Z,3.58
2022-09-26T09:47:21.625Z,3.80
2022-09-26T09:50:34.396Z,3.72
2022-09-26T09:54:01.990Z,4.32
2022-09-26T09:57:33.799Z,4.18
2022-09-26T10:00:51.008Z,4.85
2022-09-26T10:04:38.284Z,4.28
2022-09-26T10:07:40.225Z,4.10
2022-09-26T10:11:24.198Z,3.15
2022-09-26T10:14:41.513Z,3.88
2022-09-26T10:18:00.787Z,3.83
2022-09-26T10:21:16.420Z,3.60
2022-09-26T10:24:34.205Z,3.65
2022-09-26T10:27:56.392Z,4.05
2022-09-26T10:31:03.894Z,3.63
2022-09-26T10:34:28.132Z,4.15
2022-09-26T10:37:30.369Z,4.13
2022-09-26T10:40:48.587Z,3.97
2022-09-26T10:43:55.809Z,3.63
2022-09-26T10:47:19.020Z,4.22
2022-09-26T10:50:55.906Z,4.30
2022-09-26T10:54:21.577Z,4.20
2022-09-26T10:57:28.248Z,4.50
2022-09-26T11:00:37.126Z,3.65
2022-09-26T11:03:44.129Z,4.15
2022-09-26T11:06:58.116Z,3.80
2022-09-26T11:10:17.577Z,3.88
2022-09-26T11:14:03.454Z,3.97
2022-09-26T11:17:09.036Z,3.47
2022-09-26T11:20:17.599Z,3.70
2022-09-26T11:23:31.925Z,3.67
2022-09-26T11:26:40.387Z,3.47
2022-09-26T11:29:44.118Z,2.70
2022-09-26T11:32:56.370Z,3.08
2022-09-26T11:36:37.258Z,3.53
2022-09-26T11:40:08.582Z,3.25
2022-09-26T11:43:58.170Z,3.13
2022-09-26T11:47:56.011Z,3.13
2022-09-26T11:51:49.957Z,2.67
2022-09-26T11:55:02.038Z,2.92
2022-09-26T11:58:14.917Z,2.53
2022-09-26T12:01:30.476Z,2.45
2022-09-26T12:04:45.356Z,2.45
2022-09-26T12:07:56.320Z,2.40
2022-09-26T12:11:09.916Z,2.97
2022-09-26T12:14:28.206Z,2.10
2022-09-26T12:17:52.526Z,2.40
2022-09-26T12:21:12.567Z,2.05
2022-09-26T12:24:27.660Z,2.00
2022-09-26T12:27:43.479Z,2.00
2022-09-26T12:31:09.673Z,2.03
2022-09-26T12:34:29.648Z,1.90
2022-09-26T12:37:39.309Z,2.10
2022-09-26T12:40:41.203Z,2.40
2022-09-26T12:43:59.097Z,1.98
2022-09-26T12:47:04.873Z,2.08
2022-09-26T12:50:12.985Z,1.50
2022-09-26T12:53:24.779Z,1.40
2022-09-26T12:56:57.964Z,1.23
2022-09-26T13:00:21.678Z,1.30
2022-09-26T13:03:36.408Z,1.40
2022-09-26T13:07:14.676Z,1.20
2022-09-26T13:10:22.169Z,1.23
2022-09-26T13:13:36.792Z,1.23
2022-09-26T13:16:54.744Z,1.40
2022-09-26T13:20:01.035Z,1.67
2022-09-26T13:23:11.070Z,1.65
2022-09-26T13:26:25.975Z,1.70
2022-09-26T13:29:33.696Z,1.40
2022-09-26T13:33:00.003Z,1.60
2022-09-26T13:36:02.218Z,1.80
2022-09-26T13:42:52.104Z,1.63
2022-09-26T13:46:07.675Z,1.80
2022-09-26T13:49:31.824Z,1.50
2022-09-26T13:53:06.838Z,1.65
2022-09-26T13:56:31.277Z,1.58
2022-09-26T13:59:35.998Z,1.50
2022-09-26T14:02:39.869Z,1.60
2022-09-26T14:05:41.715Z,1.63
2022-09-26T14:09:25.217Z,1.73
2022-09-26T14:12:53.278Z,2.28
2022-09-26T14:15:57.219Z,1.67
2022-09-26T14:19:20.615Z,2.00
2022-09-26T14:22:25.725Z,1.70
2022-09-26T14:25:45.677Z,1.58
2022-09-26T14:29:11.541Z,2.00
2022-09-26T14:32:39.340Z,1.70
2022-09-26T14:35:43.203Z,1.70
2022-09-26T14:38:48.565Z,1.67
2022-09-26T14:41:50.402Z,1.65
2022-09-26T14:44:57.316Z,1.77
2022-09-26T14:48:29.339Z,1.80
2022-09-26T14:51:35.991Z,1.80
2022-09-26T14:54:39.763Z,1.88
2022-09-26T14:57:41.566Z,1.80
2022-09-26T15:00:44.291Z,2.13
2022-09-26T15:04:03.259Z,2.10
2022-09-26T15:07:11.131Z,1.90
2022-09-26T15:10:13.287Z,1.60
2022-09-26T15:13:37.578Z,1.90
2022-09-26T15:16:42.540Z,2.47
2022-09-26T15:19:50.161Z,1.98
2022-09-26T15:22:52.921Z,2.10
2022-09-26T15:25:56.402Z,2.10
2022-09-26T15:28:58.290Z,1.95
2022-09-26T15:32:00.231Z,2.28
2022-09-26T15:35:02.303Z,2.22
2022-09-26T15:38:10.142Z,2.75
2022-09-26T15:41:17.304Z,2.00
2022-09-26T15:44:23.392Z,2.00
2022-09-26T15:47:28.868Z,2.25
2022-09-26T15:50:40.383Z,2.15
2022-09-26T15:53:58.014Z,2.15
2022-09-26T15:57:01.596Z,2.20
2022-09-26T16:00:04.135Z,2.05
2022-09-26T16:03:27.427Z,2.10
2022-09-26T16:06:30.745Z,2.28
2022-09-26T16:09:33.896Z,2.40
2022-09-26T16:12:38.447Z,2.17
2022-09-26T16:15:40.426Z,2.40
2022-09-26T16:18:47.502Z,2.15
2022-09-26T16:21:49.280Z,2.53
2022-09-26T16:24:51.671Z,4.53
2022-09-26T16:27:57.434Z,2.50
2022-09-26T16:31:10.404Z,2.25
2022-09-26T16:34:22.558Z,2.13
2022-09-26T16:37:24.373Z,2.17
2022-09-26T16:40:32.206Z,2.67
2022-09-26T16:43:34.464Z,2.40
2022-09-26T16:46:37.763Z,2.60
2022-09-26T16:49:43.039Z,2.33
2022-09-26T16:52:45.979Z,2.17
2022-09-26T16:55:47.810Z,2.20
2022-09-26T16:58:49.600Z,1.98
2022-09-26T17:01:55.663Z,2.13
2022-09-26T17:04:57.543Z,2.03
2022-09-26T17:07:59.335Z,2.10
2022-09-26T17:11:02.434Z,1.85
2022-09-26T17:14:04.260Z,1.95
2022-09-26T17:17:07.177Z,1.73
2022-09-26T17:20:12.442Z,1.45
2022-09-26T17:23:35.319Z,1.65
2022-09-26T17:26:36.706Z,1.50
2022-09-26T17:29:40.425Z,1.30
2022-09-26T17:32:44.208Z,2.00
2022-09-26T17:35:46.105Z,1.60
2022-09-26T17:38:48.000Z,1.50
2022-09-26T17:41:50.696Z,1.83
2022-09-26T17:44:52.540Z,1.67
2022-09-26T17:47:59.358Z,1.85
2022-09-26T17:51:02.196Z,1.75
2022-09-26T17:54:07.144Z,1.50
2022-09-26T17:57:12.761Z,1.42
2022-09-26T18:00:19.356Z,1.55
2022-09-26T18:03:25.799Z,1.55
2022-09-26T18:06:28.783Z,1.60
2022-09-26T18:09:32.685Z,1.55
2022-09-26T18:12:37.290Z,1.50
2022-09-26T18:15:39.120Z,1.58
2022-09-26T18:18:40.948Z,1.35
2022-09-26T18:21:42.879Z,1.88
2022-09-26T18:24:47.155Z,1.63
2022-09-26T18:27:53.266Z,1.80
2022-09-26T18:30:58.367Z,1.75
2022-09-26T18:34:01.244Z,1.80
2022-09-26T18:37:03.079Z,1.63
2022-09-26T18:40:05.353Z,1.67
2022-09-26T18:43:08.777Z,2.10
2022-09-26T18:46:16.204Z,2.00
2022-09-26T18:49:18.178Z,2.50
2022-09-26T18:52:20.227Z,1.90
2022-09-26T18:55:42.528Z,2.30
2022-09-26T18:58:47.761Z,3.78
2022-09-26T19:01:49.683Z,2.30
2022-09-26T19:04:51.647Z,2.00
2022-09-26T19:07:53.480Z,2.65
2022-09-26T19:10:55.571Z,2.10
2022-09-26T19:13:58.074Z,2.30
2022-09-26T19:20:02.259Z,2.50
2022-09-26T19:23:04.161Z,2.28
2022-09-26T19:26:06.368Z,2.30
2022-09-26T19:29:12.311Z,2.28
2022-09-26T19:32:18.571Z,2.90
2022-09-26T19:35:30.535Z,2.30
2022-09-26T19:38:32.342Z,2.25
2022-09-26T19:41:34.181Z,2.80
2022-09-26T19:44:36.018Z,3.25
2022-09-26T19:47:39.279Z,2.17
2022-09-26T19:50:41.100Z,2.28
2022-09-26T19:53:42.980Z,2.05
2022-09-26T19:56:45.685Z,2.10
2022-09-26T19:59:47.878Z,1.83
2022-09-26T20:02:52.751Z,1.77
2022-09-26T20:05:54.680Z,1.70
2022-09-26T20:09:01.727Z,1.77
2022-09-26T20:12:04.001Z,2.22
2022-09-26T20:15:06.221Z,2.25
2022-09-26T20:18:08.347Z,3.63
2022-09-26T20:21:10.240Z,1.73
2022-09-26T20:24:14.821Z,2.00
2022-09-26T20:27:18.849Z,1.33
2022-09-26T20:30:39.359Z,2.30
2022-09-26T20:33:41.236Z,1.63
2022-09-26T20:36:50.707Z,2.38
2022-09-26T20:39:52.616Z,2.00
2022-09-26T20:42:57.452Z,1.88
2022-09-26T20:45:59.510Z,2.72
2022-09-26T20:49:02.608Z,1.75
2022-09-26T20:52:08.815Z,1.92
2022-09-26T20:55:18.093Z,2.15
2022-09-26T20:58:19.978Z,1.70
2022-09-26T21:01:22.223Z,1.50
2022-09-26T21:04:29.915Z,1.80
2022-09-26T21:07:32.013Z,2.00
2022-09-26T21:10:33.872Z,1.50
2022-09-26T21:13:35.685Z,1.60
2022-09-26T21:16:44.144Z,1.98
2022-09-26T21:19:46.111Z,1.60
2022-09-26T21:23:08.619Z,1.90
2022-09-26T21:29:30.410Z,1.60
2022-09-26T21:32:32.223Z,1.50
2022-09-26T21:35:34.016Z,1.50
2022-09-26T21:38:35.824Z,1.50
2022-09-26T21:41:37.685Z,1.40
2022-09-26T21:44:42.242Z,1.70
2022-09-26T21:47:44.063Z,1.40
2022-09-26T21:50:48.871Z,1.50
2022-09-26T21:54:16.231Z,1.52
2022-09-26T21:57:23.725Z,1.20
2022-09-26T22:00:25.677Z,1.65
2022-09-26T22:03:27.766Z,1.30
2022-09-26T22:06:29.551Z,1.30
2022-09-26T22:09:31.365Z,1.45
2022-09-26T22:12:33.579Z,1.40
2022-09-26T22:15:35.439Z,1.40
2022-09-26T22:18:39.047Z,1.35
2022-09-26T22:21:40.893Z,1.65
2022-09-26T22:24:42.739Z,1.45
2022-09-26T22:27:44.735Z,1.40
2022-09-26T22:30:46.636Z,1.33
2022-09-26T22:33:48.486Z,1.30
2022-09-26T22:36:50.320Z,1.38
2022-09-26T22:39:53.104Z,1.40
2022-09-26T22:42:54.929Z,1.50
2022-09-26T22:46:04.284Z,1.53
2022-09-26T22:49:06.192Z,1.40
2022-09-26T22:52:08.055Z,1.35
2022-09-26T22:55:09.893Z,1.23
2022-09-26T22:58:11.859Z,1.10
2022-09-26T23:01:15.357Z,1.30
2022-09-26T23:04:17.609Z,1.20
2022-09-26T23:07:19.855Z,1.50
2022-09-26T23:10:22.327Z,1.50
2022-09-26T23:13:27.598Z,1.65
2022-09-26T23:16:29.509Z,1.30
2022-09-26T23:19:31.580Z,1.20
2022-09-26T23:22:33.366Z,1.48
2022-09-26T23:25:35.578Z,1.37
2022-09-26T23:28:37.399Z,1.33
2022-09-26T23:31:39.284Z,1.20
2022-09-26T23:34:41.154Z,1.30
2022-09-26T23:37:42.960Z,1.15
2022-09-26T23:40:44.842Z,1.42
2022-09-26T23:43:46.730Z,1.70
2022-09-26T23:46:48.553Z,1.40
2022-09-26T23:49:50.346Z,1.50
2022-09-26T23:52:52.145Z,1.90
2022-09-26T23:56:01.385Z,1.47
2022-09-26T23:59:03.223Z,1.40
